Time;durP1;ratioP1;P1;durP2;ratioP2;P2;SDS_P1;SDS_P2;PMS_P1;PMS_P2;Temp;Humidity;BMP_temperature;BMP_pressure;BME280_temperature;BME280_humidity;BME280_pressure;Samples;Min_cycle;Max_cycle;Signal;HPM_P1;HPM_P2
2022/12/23 00:01:29;;;;;;;2.50;1.30;;;11.70;99.90;;;;;;5015166;28;20497;-65
2022/12/23 00:03:58;;;;;;;3.08;1.40;;;11.70;99.90;;;;;;5014681;28;20055;-70
2022/12/23 00:06:24;;;;;;;2.30;1.30;;;11.70;99.90;;;;;;5015243;28;20038;-66
2022/12/23 00:08:56;;;;;;;4.55;1.60;;;11.70;99.90;;;;;;5015200;28;20042;-78
2022/12/23 00:11:23;;;;;;;5.60;2.22;;;11.60;99.90;;;;;;5014885;28;20379;-76
2022/12/23 00:16:37;;;;;;;5.50;1.90;;;11.30;99.90;;;;;;5015458;28;20037;-66
2022/12/23 00:19:03;;;;;;;8.20;3.03;;;11.20;99.90;;;;;;5015462;28;20046;-65
2022/12/23 00:21:29;;;;;;;5.05;2.58;;;11.10;99.90;;;;;;4997856;28;20555;-78
2022/12/23 00:23:54;;;;;;;6.30;2.13;;;11.10;99.90;;;;;;5014308;28;20041;-69
2022/12/23 00:26:23;;;;;;;6.50;3.25;;;11.10;99.90;;;;;;4996703;28;20069;-66
2022/12/23 00:28:49;;;;;;;6.00;2.35;;;11.10;99.90;;;;;;4996643;28;20129;-65
2022/12/23 00:31:19;;;;;;;10.30;4.47;;;11.20;99.90;;;;;;5013622;28;20038;-70
2022/12/23 00:33:47;;;;;;;7.78;2.40;;;11.10;99.90;;;;;;5013514;28;20141;-66
2022/12/23 00:36:26;;;;;;;7.72;3.88;;;11.20;99.90;;;;;;5014676;28;20038;-66
2022/12/23 00:44:21;;;;;;;6.50;2.17;;;11.10;99.90;;;;;;5015184;28;20448;-65
2022/12/23 00:46:47;;;;;;;4.22;1.88;;;11.10;99.90;;;;;;5014640;28;20045;-66
2022/12/23 00:52:00;;;;;;;7.53;3.17;;;11.10;99.90;;;;;;5014514;28;20040;-67
2022/12/23 00:54:25;;;;;;;7.43;3.13;;;11.10;99.90;;;;;;5012945;28;20427;-66
2022/12/23 00:56:51;;;;;;;6.90;3.15;;;11.00;99.90;;;;;;5014403;28;20129;-65
2022/12/23 00:59:17;;;;;;;8.75;2.75;;;11.00;99.90;;;;;;5006999;28;20504;-78
2022/12/23 01:07:15;;;;;;;6.55;3.08;;;10.70;99.90;;;;;;4977191;28;20513;-65
2022/12/23 01:09:41;;;;;;;8.13;3.38;;;10.70;99.90;;;;;;5014472;28;20041;-75
2022/12/23 01:12:07;;;;;;;7.60;3.63;;;10.70;99.90;;;;;;4996486;28;20548;-77
2022/12/23 01:14:33;;;;;;;5.95;3.30;;;10.70;99.90;;;;;;5014061;28;20412;-67
2022/12/23 01:16:59;;;;;;;8.25;2.67;;;10.70;99.90;;;;;;5014332;28;20037;-66
2022/12/23 01:19:24;;;;;;;8.60;2.25;;;10.80;99.90;;;;;;5014440;28;20041;-66
2022/12/23 01:21:50;;;;;;;4.90;1.90;;;11.00;99.90;;;;;;5004010;28;20512;-65
2022/12/23 01:24:16;;;;;;;6.40;2.03;;;11.20;99.90;;;;;;5009725;28;20041;-65
2022/12/23 01:26:42;;;;;;;5.95;2.58;;;11.20;99.90;;;;;;5013372;28;20109;-65
2022/12/23 01:29:08;;;;;;;4.88;2.53;;;11.30;99.90;;;;;;5014000;28;20057;-77
2022/12/23 01:31:33;;;;;;;5.55;1.98;;;11.20;99.90;;;;;;5013722;28;20489;-67
2022/12/23 01:33:59;;;;;;;4.47;1.63;;;11.30;99.90;;;;;;5014344;28;20061;-66
2022/12/23 01:36:25;;;;;;;8.90;3.92;;;11.30;99.90;;;;;;4996461;28;20038;-65
2022/12/23 01:38:51;;;;;;;6.15;2.38;;;11.20;99.90;;;;;;5013697;28;20405;-65
2022/12/23 01:44:43;;;;;;;7.10;2.55;;;11.10;99.90;;;;;;5013720;28;20520;-65
2022/12/23 01:47:34;;;;;;;7.45;3.20;;;11.10;99.90;;;;;;5013101;28;20037;-65
2022/12/23 01:50:24;;;;;;;8.43;3.13;;;11.00;99.90;;;;;;5006767;28;20041;-66
2022/12/23 01:53:04;;;;;;;5.85;3.33;;;10.90;99.90;;;;;;5006995;28;20049;-65
2022/12/23 01:55:31;;;;;;;11.65;4.50;;;10.80;99.90;;;;;;4978291;28;20042;-65
2022/12/23 01:58:06;;;;;;;11.52;4.15;;;10.70;99.90;;;;;;5013693;28;20045;-66
2022/12/23 02:09:15;;;;;;;5.20;2.30;;;10.90;99.90;;;;;;5013612;28;20193;-65
2022/12/23 02:11:55;;;;;;;6.15;1.88;;;11.10;99.90;;;;;;5013442;28;20571;-65
2022/12/23 02:17:35;;;;;;;3.28;1.25;;;11.20;99.90;;;;;;5004790;28;20584;-78
2022/12/23 02:20:38;;;;;;;1.35;0.80;;;11.30;99.90;;;;;;5013837;28;20064;-67
2022/12/23 02:23:29;;;;;;;3.63;1.33;;;11.30;99.90;;;;;;5002467;28;20440;-65
2022/12/23 02:26:04;;;;;;;2.58;1.40;;;11.30;99.90;;;;;;5013672;28;20045;-77
2022/12/23 02:29:00;;;;;;;2.03;1.02;;;11.20;99.90;;;;;;5013246;28;20540;-66
2022/12/23 02:31:33;;;;;;;2.35;1.13;;;11.30;99.90;;;;;;5013437;28;20054;-79
2022/12/23 02:34:15;;;;;;;2.92;0.95;;;11.50;99.90;;;;;;5013385;28;20042;-65
2022/12/23 02:37:14;;;;;;;1.77;1.00;;;11.50;99.90;;;;;;5013285;28;20046;-72
2022/12/23 02:40:02;;;;;;;2.13;0.90;;;11.50;99.90;;;;;;5013663;28;20116;-66
2022/12/23 02:42:46;;;;;;;4.22;1.45;;;11.50;99.90;;;;;;5013418;28;20092;-66
2022/12/23 02:45:41;;;;;;;4.80;1.67;;;11.40;99.90;;;;;;5013333;28;20049;-65
2022/12/23 02:48:13;;;;;;;2.45;1.30;;;11.40;99.90;;;;;;5009698;28;20081;-65
2022/12/23 02:50:41;;;;;;;3.90;1.40;;;11.50;99.90;;;;;;5012743;28;20042;-79
2022/12/23 02:53:19;;;;;;;2.33;0.93;;;11.50;99.90;;;;;;5013168;28;20045;-78
2022/12/23 02:55:47;;;;;;;2.60;1.17;;;11.50;99.90;;;;;;5013211;28;20034;-66
2022/12/23 02:58:16;;;;;;;2.42;1.05;;;11.60;99.90;;;;;;5016446;28;20037;-65
2022/12/23 03:00:44;;;;;;;3.85;0.93;;;11.60;99.90;;;;;;5016916;28;20560;-66
2022/12/23 03:03:10;;;;;;;1.23;0.50;;;11.60;99.90;;;;;;5016670;28;20077;-78
2022/12/23 03:05:42;;;;;;;4.90;0.88;;;11.80;99.90;;;;;;5016742;28;20065;-68
2022/12/23 03:08:19;;;;;;;5.68;0.68;;;11.80;99.90;;;;;;5015646;28;20516;-67
2022/12/23 03:10:57;;;;;;;2.33;1.00;;;11.80;99.90;;;;;;5016122;28;20058;-78
2022/12/23 03:13:37;;;;;;;3.25;1.35;;;11.70;99.90;;;;;;5016538;28;20057;-76
2022/12/23 03:16:12;;;;;;;2.45;1.38;;;11.60;99.90;;;;;;5016642;28;20110;-69
2022/12/23 03:19:02;;;;;;;4.00;1.90;;;11.60;99.90;;;;;;5016720;28;20545;-66
2022/12/23 03:21:44;;;;;;;4.97;2.08;;;11.40;99.90;;;;;;5016351;28;20045;-78
2022/12/23 03:24:09;;;;;;;9.02;3.15;;;11.30;99.90;;;;;;5016810;28;20112;-65
2022/12/23 03:26:47;;;;;;;4.18;1.70;;;11.20;99.90;;;;;;5016438;28;20044;-78
2022/12/23 03:29:25;;;;;;;4.95;1.92;;;11.20;99.90;;;;;;5006903;28;20424;-74
2022/12/23 03:31:53;;;;;;;4.55;1.63;;;11.20;99.90;;;;;;5016356;28;20045;-66
2022/12/23 03:34:23;;;;;;;3.70;1.35;;;11.20;99.90;;;;;;5016053;28;20053;-66
2022/12/23 03:36:54;;;;;;;5.93;1.17;;;11.30;99.90;;;;;;5016668;28;20042;-65
2022/12/23 03:39:27;;;;;;;6.65;1.80;;;11.30;99.90;;;;;;5016192;28;20524;-65
2022/12/23 03:42:06;;;;;;;9.35;3.83;;;11.20;99.90;;;;;;5016234;28;20081;-65
2022/12/23 03:44:36;;;;;;;6.57;2.70;;;11.10;99.90;;;;;;5016217;28;20069;-69
2022/12/23 03:47:18;;;;;;;6.72;2.80;;;11.00;99.90;;;;;;5016306;28;20033;-75
2022/12/23 03:49:50;;;;;;;9.38;2.80;;;10.90;99.90;;;;;;5016214;28;20034;-78
2022/12/23 03:52:25;;;;;;;10.00;2.85;;;10.90;99.90;;;;;;5015803;28;20481;-66
2022/12/23 03:54:58;;;;;;;6.75;3.10;;;10.80;99.90;;;;;;5015506;28;20033;-65
2022/12/23 03:57:48;;;;;;;5.30;2.90;;;10.70;99.90;;;;;;5015335;28;20041;-72
2022/12/23 04:00:14;;;;;;;4.75;1.33;;;10.60;99.90;;;;;;5005556;28;20042;-72
2022/12/23 04:03:11;;;;;;;2.90;0.70;;;11.00;99.90;;;;;;5015899;28;20179;-66
2022/12/23 04:05:40;;;;;;;2.50;0.73;;;11.20;99.90;;;;;;4979364;28;20039;-79
2022/12/23 04:08:21;;;;;;;0.90;0.60;;;11.30;99.90;;;;;;5000564;28;20057;-66
2022/12/23 04:10:48;;;;;;;3.55;1.08;;;11.40;99.90;;;;;;5010239;28;20044;-65
2022/12/23 04:13:13;;;;;;;3.13;0.93;;;11.40;99.90;;;;;;5015245;28;20046;-73
2022/12/23 04:15:40;;;;;;;4.25;1.35;;;11.40;99.90;;;;;;5015559;28;20030;-65
2022/12/23 04:18:07;;;;;;;3.33;1.35;;;11.20;99.90;;;;;;5015480;28;20117;-79
2022/12/23 04:20:33;;;;;;;4.35;1.80;;;11.20;99.90;;;;;;5015391;28;20080;-77
2022/12/23 04:22:59;;;;;;;5.10;2.28;;;11.10;99.90;;;;;;5015099;28;20057;-65
2022/12/23 04:25:24;;;;;;;1.98;1.63;;;11.00;99.90;;;;;;5015522;28;20390;-79
2022/12/23 04:27:50;;;;;;;4.50;2.45;;;11.00;99.90;;;;;;5014630;28;20080;-66
2022/12/23 04:30:17;;;;;;;5.55;2.00;;;10.80;99.90;;;;;;5014830;28;20120;-65
2022/12/23 04:32:43;;;;;;;3.60;1.30;;;10.80;99.90;;;;;;4993624;28;20470;-73
2022/12/23 04:35:10;;;;;;;1.88;1.13;;;11.00;99.90;;;;;;5001670;28;20121;-66
2022/12/23 04:37:36;;;;;;;4.18;1.20;;;11.10;99.90;;;;;;5015127;28;20046;-66
2022/12/23 04:40:03;;;;;;;5.95;2.60;;;11.20;99.90;;;;;;5015128;28;20042;-75
2022/12/23 04:42:28;;;;;;;5.35;2.80;;;11.00;99.90;;;;;;5014936;28;20065;-66
2022/12/23 04:44:54;;;;;;;5.82;2.40;;;10.90;99.90;;;;;;5015222;28;20070;-78
2022/12/23 04:47:20;;;;;;;8.80;3.22;;;10.90;99.90;;;;;;5014612;28;20068;-65
2022/12/23 04:49:46;;;;;;;10.38;4.13;;;10.90;99.90;;;;;;5015178;28;20145;-66
2022/12/23 04:52:11;;;;;;;7.32;2.97;;;10.90;99.90;;;;;;4997207;28;20104;-68
2022/12/23 04:54:37;;;;;;;7.07;2.88;;;10.90;99.90;;;;;;5014877;28;20125;-79
2022/12/23 04:57:03;;;;;;;6.03;1.95;;;10.80;99.90;;;;;;5014283;28;20034;-72
2022/12/23 04:59:30;;;;;;;4.63;1.60;;;10.90;99.90;;;;;;5014265;28;20037;-65
2022/12/23 05:01:56;;;;;;;4.63;2.10;;;11.00;99.90;;;;;;4996576;28;20046;-79
2022/12/23 05:04:22;;;;;;;4.82;2.22;;;11.00;99.90;;;;;;5014693;28;20061;-65
2022/12/23 05:06:48;;;;;;;7.00;2.45;;;11.00;99.90;;;;;;5014426;28;20029;-66
2022/12/23 05:09:14;;;;;;;5.30;2.55;;;11.00;99.90;;;;;;5014203;28;20049;-74
2022/12/23 05:11:40;;;;;;;9.50;3.95;;;10.90;99.90;;;;;;5014384;28;20044;-66
2022/12/23 05:14:05;;;;;;;6.53;3.90;;;10.80;99.90;;;;;;5014472;28;20041;-77
2022/12/23 05:16:32;;;;;;;12.25;4.95;;;10.70;99.90;;;;;;4996461;28;20046;-69
2022/12/23 05:18:58;;;;;;;78.93;31.75;;;10.70;99.90;;;;;;5014481;28;20133;-65
2022/12/23 05:21:24;;;;;;;61.33;19.85;;;10.60;99.90;;;;;;5014337;28;20177;-65
2022/12/23 05:23:50;;;;;;;50.28;23.50;;;10.60;99.90;;;;;;5014598;28;20534;-65
2022/12/23 05:26:16;;;;;;;37.17;17.73;;;10.50;99.90;;;;;;5013745;28;20084;-78
2022/12/23 05:28:44;;;;;;;27.80;13.15;;;10.50;99.90;;;;;;5014030;28;20122;-75
2022/12/23 05:31:11;;;;;;;39.10;10.15;;;10.50;99.90;;;;;;5013014;28;20034;-66
2022/12/23 05:33:37;;;;;;;17.70;7.97;;;10.50;99.90;;;;;;5013527;28;20129;-66
2022/12/23 05:36:03;;;;;;;12.70;7.63;;;10.40;99.90;;;;;;5013364;28;20038;-72
2022/12/23 05:38:29;;;;;;;9.60;4.25;;;10.40;99.90;;;;;;5013816;28;20043;-66
2022/12/23 05:40:55;;;;;;;7.88;3.45;;;10.50;99.90;;;;;;5014018;28;20114;-78
2022/12/23 05:43:21;;;;;;;6.07;2.22;;;10.60;99.90;;;;;;5012731;28;20041;-77
2022/12/23 05:45:48;;;;;;;9.48;3.67;;;10.80;99.90;;;;;;5010815;28;20521;-78
2022/12/23 05:48:13;;;;;;;6.25;3.20;;;10.80;99.90;;;;;;5013292;28;20386;-76
2022/12/23 05:50:40;;;;;;;8.60;3.88;;;10.80;99.90;;;;;;5013813;28;20092;-65
2022/12/23 05:53:06;;;;;;;10.02;2.95;;;10.80;99.90;;;;;;5014081;28;20049;-72
2022/12/23 05:55:32;;;;;;;5.10;1.48;;;10.90;99.90;;;;;;5010621;28;20044;-64
2022/12/23 05:57:58;;;;;;;3.35;1.30;;;11.10;99.90;;;;;;5012021;28;20136;-79
2022/12/23 06:00:24;;;;;;;3.20;1.20;;;11.20;99.90;;;;;;5012744;28;20088;-68
2022/12/23 06:02:49;;;;;;;4.30;1.60;;;11.30;99.90;;;;;;5014116;28;20068;-79
2022/12/23 06:05:15;;;;;;;3.72;1.80;;;11.20;99.90;;;;;;5014152;28;20062;-80
2022/12/23 06:07:41;;;;;;;3.47;2.00;;;11.30;99.90;;;;;;5013952;28;20188;-65
2022/12/23 06:10:08;;;;;;;6.43;2.00;;;11.30;99.90;;;;;;4996531;28;20117;-79
2022/12/23 06:12:35;;;;;;;4.18;1.55;;;11.30;99.90;;;;;;5013633;28;20070;-72
2022/12/23 06:15:01;;;;;;;3.38;1.88;;;11.40;99.90;;;;;;5013910;28;20042;-79
2022/12/23 06:17:28;;;;;;;4.07;1.90;;;11.50;99.90;;;;;;4996609;28;20064;-80
2022/12/23 06:19:53;;;;;;;6.07;1.50;;;11.60;99.90;;;;;;5012614;28;20124;-78
2022/12/23 06:22:20;;;;;;;4.47;1.73;;;11.60;99.90;;;;;;5012832;28;20508;-75
2022/12/23 06:24:47;;;;;;;4.05;1.70;;;11.60;99.90;;;;;;5013810;28;20046;-79
2022/12/23 06:27:13;;;;;;;4.97;1.80;;;11.50;99.90;;;;;;5014014;28;20121;-67
2022/12/23 06:29:39;;;;;;;7.15;2.33;;;11.40;99.90;;;;;;4996252;28;20049;-65
2022/12/23 06:32:05;;;;;;;6.68;2.63;;;11.30;99.90;;;;;;5015136;28;20412;-79
2022/12/23 06:34:30;;;;;;;5.72;2.60;;;11.20;99.90;;;;;;5018103;28;20052;-79
2022/12/23 06:36:56;;;;;;;2.83;1.80;;;11.20;99.90;;;;;;5017527;28;20045;-67
2022/12/23 06:39:22;;;;;;;5.60;2.28;;;11.30;99.90;;;;;;5017401;28;20030;-66
2022/12/23 06:41:48;;;;;;;6.07;2.00;;;11.50;99.90;;;;;;5017464;28;20099;-65
2022/12/23 06:44:14;;;;;;;3.25;1.75;;;11.70;99.90;;;;;;5017408;28;20037;-79
2022/12/23 06:46:40;;;;;;;3.33;1.92;;;11.80;99.90;;;;;;5017216;28;20432;-73
2022/12/23 06:49:06;;;;;;;3.75;1.90;;;11.90;99.90;;;;;;5017168;28;20030;-79
2022/12/23 06:51:32;;;;;;;5.90;2.45;;;11.80;99.90;;;;;;5017265;28;20073;-79
2022/12/23 06:53:59;;;;;;;4.15;2.38;;;11.70;99.90;;;;;;5017090;28;20076;-66
2022/12/23 06:56:25;;;;;;;4.65;2.30;;;11.70;99.90;;;;;;5017183;28;20448;-69
2022/12/23 06:58:51;;;;;;;6.57;2.60;;;11.70;99.90;;;;;;5017306;28;20049;-79
2022/12/23 07:01:18;;;;;;;8.35;2.97;;;11.60;99.90;;;;;;5017149;28;20550;-79
2022/12/23 07:03:43;;;;;;;4.75;2.00;;;11.50;99.90;;;;;;5017200;28;20044;-76
2022/12/23 07:06:09;;;;;;;10.07;2.40;;;11.50;99.90;;;;;;5017088;28;20393;-66
2022/12/23 07:08:35;;;;;;;2.45;1.80;;;11.70;99.90;;;;;;5016918;28;20060;-79
2022/12/23 07:11:02;;;;;;;6.68;2.40;;;11.70;99.90;;;;;;5016959;28;20401;-79
2022/12/23 07:13:29;;;;;;;3.35;2.28;;;11.60;99.90;;;;;;5016991;28;20038;-80
2022/12/23 07:15:55;;;;;;;5.28;2.40;;;11.60;99.90;;;;;;5017070;28;20042;-78
2022/12/23 07:18:22;;;;;;;5.40;2.20;;;11.70;99.90;;;;;;5017036;28;20095;-78
2022/12/23 07:20:48;;;;;;;7.55;2.72;;;11.70;99.90;;;;;;4999140;28;20034;-66
2022/12/23 07:23:14;;;;;;;5.43;2.10;;;11.90;99.90;;;;;;5016842;28;20044;-78
2022/12/23 07:25:40;;;;;;;8.15;2.25;;;11.80;99.90;;;;;;5016715;28;20070;-79
2022/12/23 07:28:06;;;;;;;6.72;2.22;;;11.80;99.90;;;;;;5016786;28;20563;-65
2022/12/23 07:30:31;;;;;;;6.32;2.13;;;11.70;99.90;;;;;;5016694;28;20065;-65
2022/12/23 07:32:57;;;;;;;4.60;2.47;;;11.80;99.90;;;;;;5016506;28;20050;-78
2022/12/23 07:35:23;;;;;;;6.25;2.47;;;11.90;99.90;;;;;;5016419;28;20515;-65
2022/12/23 07:37:54;;;;;;;4.32;2.20;;;11.90;99.90;;;;;;5016418;28;20096;-76
2022/12/23 07:40:23;;;;;;;8.63;2.92;;;11.90;99.90;;;;;;5016321;28;20040;-65
2022/12/23 07:42:52;;;;;;;5.22;2.25;;;11.90;99.90;;;;;;4998040;28;20080;-70
2022/12/23 07:45:18;;;;;;;6.15;2.10;;;12.10;99.90;;;;;;5015973;28;20112;-65
2022/12/23 07:47:44;;;;;;;6.60;2.45;;;12.10;99.90;;;;;;5016211;28;20132;-65
2022/12/23 07:50:10;;;;;;;6.18;2.30;;;12.10;99.90;;;;;;4998590;28;20091;-65
2022/12/23 07:52:36;;;;;;;6.63;2.45;;;12.20;99.90;;;;;;5016130;28;20140;-79
2022/12/23 07:55:01;;;;;;;8.30;2.50;;;12.30;99.90;;;;;;5016223;28;20037;-79
2022/12/23 07:57:28;;;;;;;4.90;2.05;;;12.30;99.90;;;;;;5016222;28;20029;-79
2022/12/23 07:59:54;;;;;;;6.05;2.45;;;12.20;99.90;;;;;;5016386;28;20033;-65
2022/12/23 08:02:23;;;;;;;5.22;2.55;;;12.30;99.90;;;;;;4998229;28;20072;-65
2022/12/23 08:04:49;;;;;;;5.22;2.05;;;12.30;99.90;;;;;;5016045;28;20061;-65
2022/12/23 08:07:15;;;;;;;4.53;2.50;;;12.20;99.90;;;;;;5015945;28;20046;-73
2022/12/23 08:09:40;;;;;;;5.05;2.25;;;12.00;99.90;;;;;;5015932;28;20117;-65
2022/12/23 08:12:06;;;;;;;5.28;2.53;;;12.20;99.90;;;;;;5015823;28;20057;-70
2022/12/23 08:14:32;;;;;;;7.95;3.22;;;12.20;99.90;;;;;;5015876;28;20128;-72
2022/12/23 08:16:57;;;;;;;8.80;3.53;;;12.20;99.90;;;;;;4998124;28;20405;-66
2022/12/23 08:19:23;;;;;;;6.90;3.17;;;12.30;99.90;;;;;;5015788;28;20069;-67
2022/12/23 08:21:49;;;;;;;3.85;2.17;;;12.40;99.90;;;;;;5015795;28;20064;-79
2022/12/23 08:24:14;;;;;;;6.50;2.60;;;12.50;99.90;;;;;;5015496;28;20048;-65
2022/12/23 08:26:40;;;;;;;7.45;2.97;;;12.50;99.90;;;;;;4997900;28;20041;-65
2022/12/23 08:29:06;;;;;;;4.30;2.67;;;12.40;99.90;;;;;;5015583;28;20033;-67
2022/12/23 08:31:32;;;;;;;5.35;2.03;;;12.50;99.90;;;;;;4997803;28;20048;-69
2022/12/23 08:33:59;;;;;;;5.40;2.40;;;12.50;99.90;;;;;;5015477;28;20092;-72
2022/12/23 08:36:29;;;;;;;30.92;14.52;;;12.50;99.90;;;;;;5015469;28;20045;-66
2022/12/23 08:38:56;;;;;;;4.13;2.33;;;12.50;99.90;;;;;;5015419;28;20038;-69
2022/12/23 08:41:26;;;;;;;6.60;2.90;;;12.80;99.90;;;;;;5015293;28;20584;-69
2022/12/23 08:43:52;;;;;;;10.57;6.07;;;12.80;99.90;;;;;;5015216;28;20037;-74
2022/12/23 08:46:18;;;;;;;10.65;4.63;;;12.70;99.90;;;;;;5015020;28;20049;-79
2022/12/23 08:48:44;;;;;;;20.00;11.40;;;12.70;99.90;;;;;;5015118;28;20042;-65
2022/12/23 08:51:12;;;;;;;37.72;20.40;;;12.70;99.90;;;;;;5015086;28;20045;-65
2022/12/23 08:53:39;;;;;;;99.28;43.28;;;12.60;99.90;;;;;;4997133;28;20053;-65
2022/12/23 08:56:08;;;;;;;50.42;25.85;;;12.60;99.90;;;;;;5014603;28;20521;-66
2022/12/23 08:58:41;;;;;;;19.95;11.90;;;12.60;99.90;;;;;;5014973;28;20041;-71
2022/12/23 09:01:09;;;;;;;13.45;7.68;;;12.80;99.90;;;;;;5015162;28;20032;-65
2022/12/23 09:03:36;;;;;;;4.93;2.35;;;12.70;99.90;;;;;;5014960;28;20107;-66
2022/12/23 09:06:06;;;;;;;4.40;2.35;;;12.70;99.90;;;;;;5015004;28;20034;-66
2022/12/23 09:08:32;;;;;;;3.78;2.40;;;12.60;99.90;;;;;;5014824;28;20132;-74
2022/12/23 09:10:58;;;;;;;4.68;2.67;;;12.70;99.90;;;;;;5014368;28;20037;-66
2022/12/23 09:13:24;;;;;;;3.40;2.20;;;12.60;99.90;;;;;;5014665;28;20056;-65
2022/12/23 09:15:50;;;;;;;8.25;2.58;;;12.70;99.90;;;;;;5014837;28;20029;-77
2022/12/23 09:18:15;;;;;;;4.30;1.67;;;12.90;99.90;;;;;;5014867;28;20413;-66
2022/12/23 09:20:41;;;;;;;4.55;2.83;;;12.80;99.90;;;;;;5014693;28;20038;-65
2022/12/23 09:23:07;;;;;;;6.45;4.35;;;12.80;99.90;;;;;;5014364;28;20080;-66
2022/12/23 09:25:34;;;;;;;4.97;2.95;;;12.80;99.90;;;;;;5013975;28;20502;-66
2022/12/23 09:28:00;;;;;;;3.65;2.60;;;13.00;99.90;;;;;;5014274;28;20049;-74
2022/12/23 09:30:26;;;;;;;4.75;2.28;;;13.20;99.90;;;;;;5014045;28;20037;-66
2022/12/23 09:32:51;;;;;;;3.88;2.30;;;13.30;99.90;;;;;;5014017;28;20037;-66
2022/12/23 09:35:20;;;;;;;3.95;1.92;;;13.40;99.90;;;;;;5014533;28;20045;-73
2022/12/23 09:37:45;;;;;;;4.60;1.90;;;13.40;99.90;;;;;;4996770;28;20037;-66
2022/12/23 09:40:13;;;;;;;4.78;1.98;;;13.40;99.90;;;;;;5014226;28;20034;-66
2022/12/23 09:42:53;;;;;;;5.50;1.90;;;13.30;99.90;;;;;;5011791;28;20049;-66
2022/12/23 09:45:43;;;;;;;3.50;2.00;;;13.40;99.90;;;;;;5011714;28;20124;-66
2022/12/23 09:48:17;;;;;;;3.83;1.80;;;13.40;99.90;;;;;;5012880;28;20048;-65
2022/12/23 09:50:45;;;;;;;3.92;1.80;;;13.40;99.90;;;;;;5012199;28;20037;-65
2022/12/23 09:53:11;;;;;;;3.88;2.13;;;13.30;99.90;;;;;;5011345;28;20057;-66
2022/12/23 09:56:01;;;;;;;4.47;1.58;;;13.30;99.90;;;;;;5012852;28;20034;-66
2022/12/23 09:58:47;;;;;;;5.53;2.20;;;13.20;99.90;;;;;;5012121;28;20120;-67
2022/12/23 10:01:31;;;;;;;6.55;2.35;;;13.50;99.90;;;;;;5011945;28;20038;-67
2022/12/23 10:04:22;;;;;;;3.58;1.33;;;13.60;99.90;;;;;;5013544;28;20153;-70
2022/12/23 10:07:08;;;;;;;3.35;1.50;;;;;;;;;;4995868;28;20042;-74
2022/12/23 10:09:41;;;;;;;7.75;2.13;;;13.70;99.90;;;;;;5015937;28;20539;-67
2022/12/23 10:12:28;;;;;;;9.90;2.00;;;13.60;99.90;;;;;;5017509;28;20065;-68
2022/12/23 10:14:57;;;;;;;3.78;1.98;;;13.60;99.90;;;;;;5016596;28;20513;-66
2022/12/23 10:17:30;;;;;;;5.95;2.33;;;13.50;99.90;;;;;;5015733;28;20065;-66
2022/12/23 10:20:01;;;;;;;7.25;2.22;;;13.60;99.90;;;;;;5015825;28;20037;-66
2022/12/23 10:22:43;;;;;;;3.47;1.38;;;13.60;99.90;;;;;;5015775;28;20045;-66
2022/12/23 10:25:19;;;;;;;6.05;1.77;;;13.60;99.90;;;;;;5015447;28;20050;-66
2022/12/23 10:27:45;;;;;;;5.40;1.95;;;13.60;99.90;;;;;;5014778;28;20038;-69
2022/12/23 10:30:21;;;;;;;6.40;1.80;;;13.60;99.90;;;;;;5015062;28;20099;-66
2022/12/23 10:32:59;;;;;;;3.72;1.60;;;13.70;99.90;;;;;;5016042;28;20045;-66
2022/12/23 10:35:30;;;;;;;5.75;1.60;;;13.70;99.90;;;;;;5015370;28;20033;-66
2022/12/23 10:38:04;;;;;;;7.47;1.70;;;13.60;99.90;;;;;;5016680;28;20046;-67
2022/12/23 10:40:46;;;;;;;4.20;1.63;;;13.60;99.90;;;;;;5015689;28;20512;-66
2022/12/23 10:43:27;;;;;;;6.20;1.45;;;13.60;99.90;;;;;;5015133;28;20095;-67
2022/12/23 10:45:59;;;;;;;2.88;1.65;;;13.50;99.90;;;;;;4997670;28;20591;-68
2022/12/23 10:48:39;;;;;;;4.43;1.60;;;13.50;99.90;;;;;;5005305;28;20132;-67
2022/12/23 10:51:20;;;;;;;4.65;1.77;;;13.60;99.90;;;;;;5015108;28;20103;-67
2022/12/23 10:53:46;;;;;;;;;;;;;;;;;;5016195;28;20542;-67
2022/12/23 10:56:13;;;;;;;4.10;1.77;;;13.90;99.90;;;;;;5015097;28;19909;-67
2022/12/23 10:58:48;;;;;;;5.80;2.47;;;13.90;99.90;;;;;;5015173;28;20048;-67
2022/12/23 11:01:16;;;;;;;3.67;1.90;;;13.70;99.90;;;;;;4997483;28;20042;-67
2022/12/23 11:04:02;;;;;;;8.10;1.60;;;13.70;99.90;;;;;;5015185;28;20030;-67
2022/12/23 11:06:30;;;;;;;4.45;2.13;;;13.60;99.90;;;;;;5015702;28;20046;-67
2022/12/23 11:08:56;;;;;;;7.03;2.25;;;13.70;99.90;;;;;;5015887;28;20045;-66
2022/12/23 11:11:22;;;;;;;5.43;2.33;;;13.80;99.90;;;;;;5014433;28;20409;-66
2022/12/23 11:13:49;;;;;;;6.72;1.92;;;13.70;99.90;;;;;;4997697;28;20053;-67
2022/12/23 11:16:25;;;;;;;4.43;1.75;;;13.50;99.90;;;;;;5015036;28;20042;-67
2022/12/23 11:18:59;;;;;;;4.05;1.95;;;13.60;99.90;;;;;;5014613;28;20053;-66
2022/12/23 11:21:27;;;;;;;5.82;1.90;;;13.50;99.90;;;;;;5014195;28;20135;-67
2022/12/23 11:24:16;;;;;;;5.95;2.35;;;13.50;99.90;;;;;;5014643;28;20437;-66
2022/12/23 11:26:44;;;;;;;5.43;2.28;;;13.50;99.90;;;;;;5014476;28;20030;-66
2022/12/23 11:29:17;;;;;;;5.03;1.80;;;13.50;99.90;;;;;;5014400;28;20054;-67
2022/12/23 11:31:43;;;;;;;5.65;2.17;;;13.60;99.90;;;;;;4996194;28;20615;-66
2022/12/23 11:34:18;;;;;;;6.55;1.60;;;13.70;99.90;;;;;;5014078;28;20050;-67
2022/12/23 11:36:53;;;;;;;5.20;1.67;;;13.70;99.90;;;;;;5016031;28;20573;-68
2022/12/23 11:39:45;;;;;;;6.38;1.83;;;13.70;99.90;;;;;;5016373;28;20030;-67
2022/12/23 11:42:17;;;;;;;4.68;2.28;;;13.70;99.90;;;;;;4997276;28;20041;-67
2022/12/23 11:44:50;;;;;;;64.38;27.63;;;13.80;99.90;;;;;;4996858;28;20038;-67
2022/12/23 11:47:30;;;;;;;72.50;31.50;;;13.70;99.90;;;;;;5014511;28;20119;-67
2022/12/23 11:50:02;;;;;;;9.35;4.28;;;13.70;99.90;;;;;;5014735;28;20129;-67
2022/12/23 11:52:30;;;;;;;3.60;1.70;;;13.70;99.90;;;;;;5015394;28;20132;-74
2022/12/23 11:55:01;;;;;;;6.68;1.95;;;13.80;99.90;;;;;;5013857;28;20045;-67
2022/12/23 11:57:36;;;;;;;;;;;13.80;99.90;;;;;;5014342;28;20065;-68
2022/12/23 12:00:04;;;;;;;2.88;1.52;;;13.80;99.90;;;;;;5014493;28;19915;-67
2022/12/23 12:02:41;;;;;;;3.33;1.88;;;13.70;99.90;;;;;;4998658;28;20389;-69
2022/12/23 12:05:16;;;;;;;4.18;1.63;;;13.70;99.90;;;;;;4998194;28;20046;-69
2022/12/23 12:07:43;;;;;;;9.13;1.70;;;13.70;99.90;;;;;;4998356;28;20096;-72
2022/12/23 12:10:26;;;;;;;4.30;2.10;;;13.80;99.90;;;;;;5015869;28;20033;-72
2022/12/23 12:12:58;;;;;;;3.40;1.70;;;13.80;99.90;;;;;;5013368;28;20056;-68
2022/12/23 12:15:40;;;;;;;9.85;2.22;;;13.70;99.90;;;;;;5014358;28;20072;-68
2022/12/23 12:18:10;;;;;;;4.95;1.90;;;13.60;99.90;;;;;;5013810;28;20041;-71
2022/12/23 12:20:40;;;;;;;3.70;1.80;;;13.60;99.90;;;;;;5012857;28;20559;-73
2022/12/23 12:23:14;;;;;;;10.05;2.10;;;13.70;99.90;;;;;;5012934;28;20042;-74
2022/12/23 12:25:40;;;;;;;3.70;1.70;;;13.80;99.90;;;;;;5005790;28;20039;-69
2022/12/23 12:28:14;;;;;;;4.00;2.35;;;13.80;99.90;;;;;;4993147;28;20470;-67
2022/12/23 12:30:55;;;;;;;3.55;2.38;;;13.70;99.90;;;;;;5002921;28;20046;-74
2022/12/23 12:33:39;;;;;;;4.68;1.77;;;13.70;99.90;;;;;;5012492;28;20164;-67
2022/12/23 12:36:05;;;;;;;4.93;1.73;;;13.70;99.90;;;;;;5011112;28;20068;-68
2022/12/23 12:38:32;;;;;;;3.42;2.00;;;13.80;99.90;;;;;;5012970;28;20065;-76
2022/12/23 12:41:14;;;;;;;2.28;1.20;;;13.80;99.90;;;;;;5012210;28;20034;-68
2022/12/23 12:44:03;;;;;;;3.22;1.83;;;13.80;99.90;;;;;;5013264;28;20038;-67
2022/12/23 12:46:55;;;;;;;3.65;1.27;;;13.80;99.90;;;;;;4957221;28;20065;-74
2022/12/23 12:49:23;;;;;;;1.85;1.48;;;13.80;99.90;;;;;;5012038;28;20512;-68
2022/12/23 12:52:14;;;;;;;6.82;1.98;;;13.80;99.90;;;;;;5008297;28;20489;-70
2022/12/23 12:55:12;;;;;;;4.82;1.65;;;13.80;99.90;;;;;;5001027;28;20041;-68
2022/12/23 12:57:40;;;;;;;5.32;1.77;;;13.80;99.90;;;;;;5012448;28;20038;-68
2022/12/23 13:00:13;;;;;;;2.45;1.80;;;13.70;99.90;;;;;;5012692;28;20050;-69
2022/12/23 13:03:11;;;;;;;4.20;1.63;;;13.70;99.90;;;;;;5012995;28;20041;-69
2022/12/23 13:06:04;;;;;;;8.05;2.45;;;14.00;99.90;;;;;;4993184;28;20042;-67
2022/12/23 13:08:59;;;;;;;3.47;1.70;;;14.00;99.90;;;;;;4992914;28;20041;-66
2022/12/23 13:11:44;;;;;;;3.75;1.85;;;14.00;99.90;;;;;;4988492;28;20528;-67
2022/12/23 13:14:19;;;;;;;4.35;1.88;;;14.00;99.90;;;;;;5007268;28;20053;-68
2022/12/23 13:17:04;;;;;;;3.30;1.92;;;14.10;99.90;;;;;;4989548;28;20034;-71
2022/12/23 13:19:54;;;;;;;4.22;1.85;;;14.00;99.90;;;;;;4982032;28;20100;-67
2022/12/23 13:22:27;;;;;;;4.95;1.77;;;13.90;99.90;;;;;;5007444;28;20445;-70
2022/12/23 13:25:05;;;;;;;3.67;1.40;;;13.90;99.90;;;;;;5014415;28;20053;-74
2022/12/23 13:28:02;;;;;;;2.45;1.48;;;13.90;99.90;;;;;;5024269;28;20045;-74
2022/12/23 13:30:41;;;;;;;4.55;2.15;;;13.80;99.90;;;;;;4992725;28;20034;-66
2022/12/23 13:33:40;;;;;;;5.95;1.70;;;13.80;99.90;;;;;;4994968;28;20050;-67
2022/12/23 13:36:17;;;;;;;2.72;1.58;;;13.80;99.90;;;;;;5007740;28;20044;-67
2022/12/23 13:38:46;;;;;;;4.97;1.40;;;13.80;99.90;;;;;;5009418;28;20041;-71